sensor_id;sensor_type;location;lat;lon;timestamp;temperature;humidity
17619;DHT22;8928;51.678;6.074;2023-05-18T00:00:31;6.80;99.90
17619;DHT22;8928;51.678;6.074;2023-05-18T00:03:18;6.80;99.90
17619;DHT22;8928;51.678;6.074;2023-05-18T00:06:06;6.70;99.90
17619;DHT22;8928;51.678;6.074;2023-05-18T00:08:54;6.70;99.90
17619;DHT22;8928;51.678;6.074;2023-05-18T00:11:41;6.60;99.90
17619;DHT22;8928;51.678;6.074;2023-05-18T00:14:28;6.50;99.90
17619;DHT22;8928;51.678;6.074;2023-05-18T00:17:15;6.50;99.90
17619;DHT22;8928;51.678;6.074;2023-05-18T00:20:03;6.60;99.90
17619;DHT22;8928;51.678;6.074;2023-05-18T00:22:51;6.50;99.90
17619;DHT22;8928;51.678;6.074;2023-05-18T00:25:39;6.60;99.90
17619;DHT22;8928;51.678;6.074;2023-05-18T00:28:26;6.50;99.90
17619;DHT22;8928;51.678;6.074;2023-05-18T00:31:14;6.50;99.90
17619;DHT22;8928;51.678;6.074;2023-05-18T00:34:01;6.50;99.90
17619;DHT22;8928;51.678;6.074;2023-05-18T00:36:49;6.40;99.90
17619;DHT22;8928;51.678;6.074;2023-05-18T00:39:36;6.40;99.90
17619;DHT22;8928;51.678;6.074;2023-05-18T00:42:24;6.30;99.90
17619;DHT22;8928;51.678;6.074;2023-05-18T00:45:11;6.30;99.90
17619;DHT22;8928;51.678;6.074;2023-05-18T00:47:58;6.30;99.90
17619;DHT22;8928;51.678;6.074;2023-05-18T00:50:45;6.30;99.90
17619;DHT22;8928;51.678;6.074;2023-05-18T00:53:32;6.30;99.90
17619;DHT22;8928;51.678;6.074;2023-05-18T00:56:20;6.30;99.90
17619;DHT22;8928;51.678;6.074;2023-05-18T00:59:09;6.20;99.90
17619;DHT22;8928;51.678;6.074;2023-05-18T01:01:57;6.10;99.90
17619;DHT22;8928;51.678;6.074;2023-05-18T01:04:44;6.00;99.90
17619;DHT22;8928;51.678;6.074;2023-05-18T01:07:31;6.00;99.90
17619;DHT22;8928;51.678;6.074;2023-05-18T01:10:19;5.90;99.90
17619;DHT22;8928;51.678;6.074;2023-05-18T01:13:14;5.90;99.90
17619;DHT22;8928;51.678;6.074;2023-05-18T01:16:06;5.90;99.90
17619;DHT22;8928;51.678;6.074;2023-05-18T01:19:00;5.90;99.90
17619;DHT22;8928;51.678;6.074;2023-05-18T01:21:56;5.90;99.90
17619;DHT22;8928;51.678;6.074;2023-05-18T01:24:47;5.90;99.90
17619;DHT22;8928;51.678;6.074;2023-05-18T01:27:36;5.90;99.90
17619;DHT22;8928;51.678;6.074;2023-05-18T01:30:27;5.80;99.90
17619;DHT22;8928;51.678;6.074;2023-05-18T01:33:14;5.80;99.90
17619;DHT22;8928;51.678;6.074;2023-05-18T01:36:01;5.80;99.90
17619;DHT22;8928;51.678;6.074;2023-05-18T01:38:48;5.80;99.90
17619;DHT22;8928;51.678;6.074;2023-05-18T01:41:38;5.70;99.90
17619;DHT22;8928;51.678;6.074;2023-05-18T01:44:35;5.70;99.90
17619;DHT22;8928;51.678;6.074;2023-05-18T01:47:27;5.70;99.90
17619;DHT22;8928;51.678;6.074;2023-05-18T01:50:18;5.70;99.90
17619;DHT22;8928;51.678;6.074;2023-05-18T01:53:16;5.60;99.90
17619;DHT22;8928;51.678;6.074;2023-05-18T01:56:07;5.50;99.90
17619;DHT22;8928;51.678;6.074;2023-05-18T01:58:54;5.50;99.90
17619;DHT22;8928;51.678;6.074;2023-05-18T02:01:43;5.50;99.90
17619;DHT22;8928;51.678;6.074;2023-05-18T02:04:30;5.50;99.90
17619;DHT22;8928;51.678;6.074;2023-05-18T02:07:17;5.60;99.90
17619;DHT22;8928;51.678;6.074;2023-05-18T02:10:05;5.50;99.90
17619;DHT22;8928;51.678;6.074;2023-05-18T02:12:52;5.50;99.90
17619;DHT22;8928;51.678;6.074;2023-05-18T02:15:39;5.60;99.90
17619;DHT22;8928;51.678;6.074;2023-05-18T02:18:28;5.60;99.90
17619;DHT22;8928;51.678;6.074;2023-05-18T02:21:18;5.60;99.90
17619;DHT22;8928;51.678;6.074;2023-05-18T02:24:07;5.50;99.90
17619;DHT22;8928;51.678;6.074;2023-05-18T02:26:54;5.50;99.90
17619;DHT22;8928;51.678;6.074;2023-05-18T02:29:41;5.50;99.90
17619;DHT22;8928;51.678;6.074;2023-05-18T02:32:28;5.40;99.90
17619;DHT22;8928;51.678;6.074;2023-05-18T02:35:18;5.30;99.90
17619;DHT22;8928;51.678;6.074;2023-05-18T02:38:05;5.30;99.90
17619;DHT22;8928;51.678;6.074;2023-05-18T02:40:52;5.30;99.90
17619;DHT22;8928;51.678;6.074;2023-05-18T02:43:39;5.20;99.90
17619;DHT22;8928;51.678;6.074;2023-05-18T02:46:26;5.20;99.90
17619;DHT22;8928;51.678;6.074;2023-05-18T02:49:13;5.20;99.90
17619;DHT22;8928;51.678;6.074;2023-05-18T02:52:02;5.20;99.90
17619;DHT22;8928;51.678;6.074;2023-05-18T02:54:49;5.20;99.90
17619;DHT22;8928;51.678;6.074;2023-05-18T02:57:39;5.30;99.90
17619;DHT22;8928;51.678;6.074;2023-05-18T03:00:31;5.20;99.90
17619;DHT22;8928;51.678;6.074;2023-05-18T03:03:18;5.30;99.90
17619;DHT22;8928;51.678;6.074;2023-05-18T03:06:06;5.30;99.90
17619;DHT22;8928;51.678;6.074;2023-05-18T03:08:55;5.30;99.90
17619;DHT22;8928;51.678;6.074;2023-05-18T03:11:42;5.30;99.90
17619;DHT22;8928;51.678;6.074;2023-05-18T03:14:29;5.30;99.90
17619;DHT22;8928;51.678;6.074;2023-05-18T03:17:16;5.30;99.90
17619;DHT22;8928;51.678;6.074;2023-05-18T03:20:04;5.20;99.90
17619;DHT22;8928;51.678;6.074;2023-05-18T03:22:51;5.20;99.90
17619;DHT22;8928;51.678;6.074;2023-05-18T03:25:40;5.20;99.90
17619;DHT22;8928;51.678;6.074;2023-05-18T03:28:28;5.30;99.90
17619;DHT22;8928;51.678;6.074;2023-05-18T03:31:15;5.30;99.90
17619;DHT22;8928;51.678;6.074;2023-05-18T03:34:02;5.20;99.90
17619;DHT22;8928;51.678;6.074;2023-05-18T03:36:49;5.20;99.90
17619;DHT22;8928;51.678;6.074;2023-05-18T03:39:37;5.20;99.90
17619;DHT22;8928;51.678;6.074;2023-05-18T03:42:25;5.20;99.90
17619;DHT22;8928;51.678;6.074;2023-05-18T03:45:12;5.20;99.90
17619;DHT22;8928;51.678;6.074;2023-05-18T03:47:59;5.20;99.90
17619;DHT22;8928;51.678;6.074;2023-05-18T03:50:46;5.20;99.90
17619;DHT22;8928;51.678;6.074;2023-05-18T03:53:34;5.20;99.90
17619;DHT22;8928;51.678;6.074;2023-05-18T03:56:21;5.20;99.90
17619;DHT22;8928;51.678;6.074;2023-05-18T03:59:10;5.20;99.90
17619;DHT22;8928;51.678;6.074;2023-05-18T04:01:57;5.20;99.90
17619;DHT22;8928;51.678;6.074;2023-05-18T04:04:45;5.20;99.90
17619;DHT22;8928;51.678;6.074;2023-05-18T04:07:32;5.20;99.90
17619;DHT22;8928;51.678;6.074;2023-05-18T04:10:28;5.20;99.90
17619;DHT22;8928;51.678;6.074;2023-05-18T04:13:15;5.30;99.90
17619;DHT22;8928;51.678;6.074;2023-05-18T04:16:04;5.40;99.90
17619;DHT22;8928;51.678;6.074;2023-05-18T04:18:51;5.40;99.90
17619;DHT22;8928;51.678;6.074;2023-05-18T04:21:39;5.50;99.90
17619;DHT22;8928;51.678;6.074;2023-05-18T04:24:28;5.60;99.90
17619;DHT22;8928;51.678;6.074;2023-05-18T04:27:17;5.70;99.90
17619;DHT22;8928;51.678;6.074;2023-05-18T04:30:06;5.80;99.90
17619;DHT22;8928;51.678;6.074;2023-05-18T04:32:56;5.80;99.90
17619;DHT22;8928;51.678;6.074;2023-05-18T04:35:44;5.90;99.90
17619;DHT22;8928;51.678;6.074;2023-05-18T04:38:32;6.00;99.90
17619;DHT22;8928;51.678;6.074;2023-05-18T04:41:20;6.10;99.90
17619;DHT22;8928;51.678;6.074;2023-05-18T04:44:07;6.10;99.90
17619;DHT22;8928;51.678;6.074;2023-05-18T04:46:54;6.20;99.90
17619;DHT22;8928;51.678;6.074;2023-05-18T04:49:43;6.30;99.90
17619;DHT22;8928;51.678;6.074;2023-05-18T04:52:30;6.50;99.90
17619;DHT22;8928;51.678;6.074;2023-05-18T04:55:22;6.60;99.90
17619;DHT22;8928;51.678;6.074;2023-05-18T04:58:12;6.70;99.90
17619;DHT22;8928;51.678;6.074;2023-05-18T05:00:59;6.80;99.90
17619;DHT22;8928;51.678;6.074;2023-05-18T05:03:46;6.90;99.90
17619;DHT22;8928;51.678;6.074;2023-05-18T05:06:35;7.10;99.90
17619;DHT22;8928;51.678;6.074;2023-05-18T05:09:22;7.20;99.90
17619;DHT22;8928;51.678;6.074;2023-05-18T05:12:09;7.40;99.90
17619;DHT22;8928;51.678;6.074;2023-05-18T05:14:56;7.50;99.90
17619;DHT22;8928;51.678;6.074;2023-05-18T05:17:44;7.70;99.90
17619;DHT22;8928;51.678;6.074;2023-05-18T05:20:31;7.80;99.90
17619;DHT22;8928;51.678;6.074;2023-05-18T05:23:20;8.00;99.90
17619;DHT22;8928;51.678;6.074;2023-05-18T05:26:07;8.20;99.90
17619;DHT22;8928;51.678;6.074;2023-05-18T05:28:54;8.30;99.90
17619;DHT22;8928;51.678;6.074;2023-05-18T05:31:41;8.50;99.90
17619;DHT22;8928;51.678;6.074;2023-05-18T05:34:28;8.70;99.90
17619;DHT22;8928;51.678;6.074;2023-05-18T05:37:15;8.80;99.90
17619;DHT22;8928;51.678;6.074;2023-05-18T05:40:04;8.90;99.90
17619;DHT22;8928;51.678;6.074;2023-05-18T05:42:51;9.00;99.90
17619;DHT22;8928;51.678;6.074;2023-05-18T05:45:38;9.20;99.90
17619;DHT22;8928;51.678;6.074;2023-05-18T05:48:27;9.30;99.90
17619;DHT22;8928;51.678;6.074;2023-05-18T05:51:15;9.40;99.90
17619;DHT22;8928;51.678;6.074;2023-05-18T05:54:02;9.40;99.90
17619;DHT22;8928;51.678;6.074;2023-05-18T05:56:51;9.50;99.90
17619;DHT22;8928;51.678;6.074;2023-05-18T05:59:38;9.50;99.90
17619;DHT22;8928;51.678;6.074;2023-05-18T06:02:25;9.40;99.90
17619;DHT22;8928;51.678;6.074;2023-05-18T06:05:12;9.40;99.90
17619;DHT22;8928;51.678;6.074;2023-05-18T06:07:59;9.40;99.90
17619;DHT22;8928;51.678;6.074;2023-05-18T06:10:46;9.50;99.90
17619;DHT22;8928;51.678;6.074;2023-05-18T06:13:34;9.60;99.90
17619;DHT22;8928;51.678;6.074;2023-05-18T06:16:22;9.70;99.90
17619;DHT22;8928;51.678;6.074;2023-05-18T06:19:09;9.80;99.90
17619;DHT22;8928;51.678;6.074;2023-05-18T06:21:56;9.90;99.90
17619;DHT22;8928;51.678;6.074;2023-05-18T06:24:43;10.00;99.90
17619;DHT22;8928;51.678;6.074;2023-05-18T06:27:30;10.10;99.90
17619;DHT22;8928;51.678;6.074;2023-05-18T06:30:19;10.20;99.90
17619;DHT22;8928;51.678;6.074;2023-05-18T06:33:06;10.30;99.90
17619;DHT22;8928;51.678;6.074;2023-05-18T06:35:53;10.40;99.90
17619;DHT22;8928;51.678;6.074;2023-05-18T06:38:40;10.50;99.90
17619;DHT22;8928;51.678;6.074;2023-05-18T06:41:27;10.60;99.90
17619;DHT22;8928;51.678;6.074;2023-05-18T06:44:14;10.70;99.90
17619;DHT22;8928;51.678;6.074;2023-05-18T06:47:03;10.70;99.90
17619;DHT22;8928;51.678;6.074;2023-05-18T06:49:50;10.80;99.90
17619;DHT22;8928;51.678;6.074;2023-05-18T06:52:37;10.80;99.90
17619;DHT22;8928;51.678;6.074;2023-05-18T06:55:24;10.90;99.90
17619;DHT22;8928;51.678;6.074;2023-05-18T06:58:12;10.90;99.90
17619;DHT22;8928;51.678;6.074;2023-05-18T07:00:59;10.90;99.90
17619;DHT22;8928;51.678;6.074;2023-05-18T07:03:48;11.00;99.90
17619;DHT22;8928;51.678;6.074;2023-05-18T07:06:35;11.00;99.90
17619;DHT22;8928;51.678;6.074;2023-05-18T07:09:24;11.10;99.90
17619;DHT22;8928;51.678;6.074;2023-05-18T07:12:11;11.10;99.90
17619;DHT22;8928;51.678;6.074;2023-05-18T07:14:58;11.20;99.90
17619;DHT22;8928;51.678;6.074;2023-05-18T07:17:45;11.20;99.90
17619;DHT22;8928;51.678;6.074;2023-05-18T07:20:33;11.30;99.90
17619;DHT22;8928;51.678;6.074;2023-05-18T07:23:20;11.30;99.90
17619;DHT22;8928;51.678;6.074;2023-05-18T07:26:09;11.50;99.90
17619;DHT22;8928;51.678;6.074;2023-05-18T07:28:56;11.60;99.90
17619;DHT22;8928;51.678;6.074;2023-05-18T07:31:43;11.70;99.90
17619;DHT22;8928;51.678;6.074;2023-05-18T07:34:30;11.90;99.90
17619;DHT22;8928;51.678;6.074;2023-05-18T07:37:19;11.90;99.90
17619;DHT22;8928;51.678;6.074;2023-05-18T07:40:07;11.90;99.90
17619;DHT22;8928;51.678;6.074;2023-05-18T07:42:55;12.10;99.90
17619;DHT22;8928;51.678;6.074;2023-05-18T07:45:42;12.30;99.90
17619;DHT22;8928;51.678;6.074;2023-05-18T07:48:29;12.50;99.90
17619;DHT22;8928;51.678;6.074;2023-05-18T07:51:16;12.70;99.90
17619;DHT22;8928;51.678;6.074;2023-05-18T07:54:05;12.90;99.90
17619;DHT22;8928;51.678;6.074;2023-05-18T07:56:52;13.30;99.90
17619;DHT22;8928;51.678;6.074;2023-05-18T07:59:39;13.40;99.90
17619;DHT22;8928;51.678;6.074;2023-05-18T08:02:26;13.70;99.90
17619;DHT22;8928;51.678;6.074;2023-05-18T08:05:13;13.70;99.90
17619;DHT22;8928;51.678;6.074;2023-05-18T08:08:00;13.80;99.90
17619;DHT22;8928;51.678;6.074;2023-05-18T08:10:51;13.80;99.90
17619;DHT22;8928;51.678;6.074;2023-05-18T08:13:38;13.80;99.90
17619;DHT22;8928;51.678;6.074;2023-05-18T08:16:25;13.90;99.90
17619;DHT22;8928;51.678;6.074;2023-05-18T08:19:12;13.90;99.90
17619;DHT22;8928;51.678;6.074;2023-05-18T08:21:59;14.10;99.90
17619;DHT22;8928;51.678;6.074;2023-05-18T08:24:46;14.20;99.90
17619;DHT22;8928;51.678;6.074;2023-05-18T08:27:34;14.40;99.90
17619;DHT22;8928;51.678;6.074;2023-05-18T08:30:21;14.60;99.90
17619;DHT22;8928;51.678;6.074;2023-05-18T08:33:08;14.90;99.90
17619;DHT22;8928;51.678;6.074;2023-05-18T08:35:55;14.80;99.90
17619;DHT22;8928;51.678;6.074;2023-05-18T08:38:42;14.50;99.90
17619;DHT22;8928;51.678;6.074;2023-05-18T08:41:31;14.40;99.90
17619;DHT22;8928;51.678;6.074;2023-05-18T08:44:21;14.40;99.90
17619;DHT22;8928;51.678;6.074;2023-05-18T08:47:13;14.40;99.90
17619;DHT22;8928;51.678;6.074;2023-05-18T08:50:01;14.40;99.90
17619;DHT22;8928;51.678;6.074;2023-05-18T08:52:53;14.50;99.90
17619;DHT22;8928;51.678;6.074;2023-05-18T08:55:41;15.30;99.90
17619;DHT22;8928;51.678;6.074;2023-05-18T08:58:33;16.10;99.90
17619;DHT22;8928;51.678;6.074;2023-05-18T09:01:24;16.80;99.90
17619;DHT22;8928;51.678;6.074;2023-05-18T09:04:13;16.90;99.90
17619;DHT22;8928;51.678;6.074;2023-05-18T09:07:01;16.70;99.90
17619;DHT22;8928;51.678;6.074;2023-05-18T09:09:51;17.10;99.90
17619;DHT22;8928;51.678;6.074;2023-05-18T09:12:39;17.30;99.90
17619;DHT22;8928;51.678;6.074;2023-05-18T09:15:27;17.30;99.90
17619;DHT22;8928;51.678;6.074;2023-05-18T09:18:16;17.60;99.90
17619;DHT22;8928;51.678;6.074;2023-05-18T09:21:03;17.70;99.90
17619;DHT22;8928;51.678;6.074;2023-05-18T09:23:50;17.80;99.90
17619;DHT22;8928;51.678;6.074;2023-05-18T09:26:37;18.20;99.90
17619;DHT22;8928;51.678;6.074;2023-05-18T09:29:24;18.10;99.90
17619;DHT22;8928;51.678;6.074;2023-05-18T09:32:13;17.80;99.90
17619;DHT22;8928;51.678;6.074;2023-05-18T09:35:04;17.60;99.90
17619;DHT22;8928;51.678;6.074;2023-05-18T09:37:51;17.70;99.90
17619;DHT22;8928;51.678;6.074;2023-05-18T09:40:43;17.40;99.90
17619;DHT22;8928;51.678;6.074;2023-05-18T09:43:30;17.40;99.90
17619;DHT22;8928;51.678;6.074;2023-05-18T09:46:17;17.70;99.90
17619;DHT22;8928;51.678;6.074;2023-05-18T09:49:06;17.90;99.90
17619;DHT22;8928;51.678;6.074;2023-05-18T09:51:56;17.80;99.90
17619;DHT22;8928;51.678;6.074;2023-05-18T09:54:53;18.20;99.90
17619;DHT22;8928;51.678;6.074;2023-05-18T09:57:44;17.60;99.90
17619;DHT22;8928;51.678;6.074;2023-05-18T10:00:36;17.60;99.90
17619;DHT22;8928;51.678;6.074;2023-05-18T10:03:24;17.10;99.90
17619;DHT22;8928;51.678;6.074;2023-05-18T10:06:11;17.70;99.90
17619;DHT22;8928;51.678;6.074;2023-05-18T10:09:02;18.30;99.90
17619;DHT22;8928;51.678;6.074;2023-05-18T10:11:50;18.70;99.90
17619;DHT22;8928;51.678;6.074;2023-05-18T10:14:37;18.60;99.90
17619;DHT22;8928;51.678;6.074;2023-05-18T10:17:25;18.70;99.90
17619;DHT22;8928;51.678;6.074;2023-05-18T10:20:14;18.70;99.90
17619;DHT22;8928;51.678;6.074;2023-05-18T10:23:04;19.30;99.90
17619;DHT22;8928;51.678;6.074;2023-05-18T10:25:53;19.40;99.90
17619;DHT22;8928;51.678;6.074;2023-05-18T10:28:41;18.90;99.90
17619;DHT22;8928;51.678;6.074;2023-05-18T10:31:29;19.20;99.90
17619;DHT22;8928;51.678;6.074;2023-05-18T10:34:16;19.30;99.90
17619;DHT22;8928;51.678;6.074;2023-05-18T10:37:06;19.50;99.90
17619;DHT22;8928;51.678;6.074;2023-05-18T10:39:53;20.00;99.90
17619;DHT22;8928;51.678;6.074;2023-05-18T10:42:44;19.50;99.90
17619;DHT22;8928;51.678;6.074;2023-05-18T10:45:32;19.20;99.90
17619;DHT22;8928;51.678;6.074;2023-05-18T10:48:20;19.50;99.90
17619;DHT22;8928;51.678;6.074;2023-05-18T10:51:07;19.40;99.90
17619;DHT22;8928;51.678;6.074;2023-05-18T10:53:57;19.70;99.90
17619;DHT22;8928;51.678;6.074;2023-05-18T10:56:52;20.10;99.90
17619;DHT22;8928;51.678;6.074;2023-05-18T10:59:42;20.80;99.90
17619;DHT22;8928;51.678;6.074;2023-05-18T11:02:30;21.20;99.90
17619;DHT22;8928;51.678;6.074;2023-05-18T11:05:23;21.30;99.90
17619;DHT22;8928;51.678;6.074;2023-05-18T11:08:10;21.40;99.90
17619;DHT22;8928;51.678;6.074;2023-05-18T11:11:01;21.80;99.90
17619;DHT22;8928;51.678;6.074;2023-05-18T11:13:49;21.20;98.90
17619;DHT22;8928;51.678;6.074;2023-05-18T11:16:40;20.70;99.30
17619;DHT22;8928;51.678;6.074;2023-05-18T11:19:30;20.40;99.50
17619;DHT22;8928;51.678;6.074;2023-05-18T11:22:17;19.80;98.40
17619;DHT22;8928;51.678;6.074;2023-05-18T11:25:07;19.80;99.40
17619;DHT22;8928;51.678;6.074;2023-05-18T11:27:56;20.20;99.90
17619;DHT22;8928;51.678;6.074;2023-05-18T11:30:48;20.70;98.70
17619;DHT22;8928;51.678;6.074;2023-05-18T11:33:39;21.10;97.90
17619;DHT22;8928;51.678;6.074;2023-05-18T11:36:27;21.60;96.70
17619;DHT22;8928;51.678;6.074;2023-05-18T11:39:22;21.90;98.00
17619;DHT22;8928;51.678;6.074;2023-05-18T11:42:10;21.70;95.20
17619;DHT22;8928;51.678;6.074;2023-05-18T11:45:05;21.60;96.50
17619;DHT22;8928;51.678;6.074;2023-05-18T11:47:55;21.90;96.20
17619;DHT22;8928;51.678;6.074;2023-05-18T11:50:51;21.90;94.00
17619;DHT22;8928;51.678;6.074;2023-05-18T11:53:39;22.30;94.30
17619;DHT22;8928;51.678;6.074;2023-05-18T11:56:30;22.90;95.40
17619;DHT22;8928;51.678;6.074;2023-05-18T11:59:29;23.20;93.80
17619;DHT22;8928;51.678;6.074;2023-05-18T12:02:22;23.50;90.50
17619;DHT22;8928;51.678;6.074;2023-05-18T12:05:10;23.80;90.20
17619;DHT22;8928;51.678;6.074;2023-05-18T12:07:59;23.50;90.90
17619;DHT22;8928;51.678;6.074;2023-05-18T12:10:47;23.50;90.00
17619;DHT22;8928;51.678;6.074;2023-05-18T12:13:35;23.20;87.10
17619;DHT22;8928;51.678;6.074;2023-05-18T12:16:22;23.20;84.70
17619;DHT22;8928;51.678;6.074;2023-05-18T12:19:11;23.20;81.70
17619;DHT22;8928;51.678;6.074;2023-05-18T12:21:58;23.30;86.30
17619;DHT22;8928;51.678;6.074;2023-05-18T12:24:50;23.60;89.80
17619;DHT22;8928;51.678;6.074;2023-05-18T12:27:38;24.10;83.10
17619;DHT22;8928;51.678;6.074;2023-05-18T12:30:26;24.50;84.70
17619;DHT22;8928;51.678;6.074;2023-05-18T12:33:20;24.90;83.00
17619;DHT22;8928;51.678;6.074;2023-05-18T12:36:09;25.10;79.30
17619;DHT22;8928;51.678;6.074;2023-05-18T12:38:56;25.30;79.60
17619;DHT22;8928;51.678;6.074;2023-05-18T12:41:44;25.50;77.30
17619;DHT22;8928;51.678;6.074;2023-05-18T12:44:31;25.40;76.30
17619;DHT22;8928;51.678;6.074;2023-05-18T12:47:19;25.60;75.60
17619;DHT22;8928;51.678;6.074;2023-05-18T12:50:06;25.90;71.90
17619;DHT22;8928;51.678;6.074;2023-05-18T12:52:54;26.40;71.50
17619;DHT22;8928;51.678;6.074;2023-05-18T12:55:41;25.90;70.20
17619;DHT22;8928;51.678;6.074;2023-05-18T12:58:30;25.90;67.50
17619;DHT22;8928;51.678;6.074;2023-05-18T13:01:17;25.80;68.40
17619;DHT22;8928;51.678;6.074;2023-05-18T13:04:09;25.40;68.00
17619;DHT22;8928;51.678;6.074;2023-05-18T13:06:56;25.40;65.50
17619;DHT22;8928;51.678;6.074;2023-05-18T13:09:44;25.70;66.30
17619;DHT22;8928;51.678;6.074;2023-05-18T13:12:36;26.00;64.80
17619;DHT22;8928;51.678;6.074;2023-05-18T13:15:25;26.10;64.20
17619;DHT22;8928;51.678;6.074;2023-05-18T13:18:12;26.20;62.40
17619;DHT22;8928;51.678;6.074;2023-05-18T13:21:00;26.50;64.20
17619;DHT22;8928;51.678;6.074;2023-05-18T13:23:47;26.00;61.70
17619;DHT22;8928;51.678;6.074;2023-05-18T13:26:34;26.00;60.00
17619;DHT22;8928;51.678;6.074;2023-05-18T13:29:21;25.60;61.60
17619;DHT22;8928;51.678;6.074;2023-05-18T13:32:09;25.30;60.80
17619;DHT22;8928;51.678;6.074;2023-05-18T13:34:56;24.90;58.60
17619;DHT22;8928;51.678;6.074;2023-05-18T13:37:44;25.10;63.00
17619;DHT22;8928;51.678;6.074;2023-05-18T13:40:33;25.20;59.40
17619;DHT22;8928;51.678;6.074;2023-05-18T13:43:20;25.00;60.60
17619;DHT22;8928;51.678;6.074;2023-05-18T13:46:07;25.10;58.00
17619;DHT22;8928;51.678;6.074;2023-05-18T13:48:56;24.70;59.70
17619;DHT22;8928;51.678;6.074;2023-05-18T13:51:43;24.30;59.00
17619;DHT22;8928;51.678;6.074;2023-05-18T13:54:30;24.50;59.20
17619;DHT22;8928;51.678;6.074;2023-05-18T13:57:17;24.60;59.70
17619;DHT22;8928;51.678;6.074;2023-05-18T14:00:05;25.00;60.00
17619;DHT22;8928;51.678;6.074;2023-05-18T14:02:56;25.30;59.00
17619;DHT22;8928;51.678;6.074;2023-05-18T14:05:44;25.90;58.20
17619;DHT22;8928;51.678;6.074;2023-05-18T14:08:31;26.30;58.30
17619;DHT22;8928;51.678;6.074;2023-05-18T14:11:18;26.90;59.40
17619;DHT22;8928;51.678;6.074;2023-05-18T14:14:06;27.90;61.00
17619;DHT22;8928;51.678;6.074;2023-05-18T14:16:53;29.00;56.40
17619;DHT22;8928;51.678;6.074;2023-05-18T14:19:40;28.80;53.30
17619;DHT22;8928;51.678;6.074;2023-05-18T14:22:28;29.00;51.90
17619;DHT22;8928;51.678;6.074;2023-05-18T14:25:16;28.90;52.50
17619;DHT22;8928;51.678;6.074;2023-05-18T14:28:03;28.80;50.80
17619;DHT22;8928;51.678;6.074;2023-05-18T14:30:50;29.20;52.30
17619;DHT22;8928;51.678;6.074;2023-05-18T14:33:37;29.50;51.40
17619;DHT22;8928;51.678;6.074;2023-05-18T14:36:24;29.60;49.10
17619;DHT22;8928;51.678;6.074;2023-05-18T14:39:14;29.80;49.40
17619;DHT22;8928;51.678;6.074;2023-05-18T14:42:01;29.60;47.20
17619;DHT22;8928;51.678;6.074;2023-05-18T14:44:48;29.00;46.70
17619;DHT22;8928;51.678;6.074;2023-05-18T14:47:35;28.80;46.00
17619;DHT22;8928;51.678;6.074;2023-05-18T14:50:22;28.60;45.70
17619;DHT22;8928;51.678;6.074;2023-05-18T14:53:09;27.50;48.30
17619;DHT22;8928;51.678;6.074;2023-05-18T14:55:57;27.00;46.50
17619;DHT22;8928;51.678;6.074;2023-05-18T14:58:48;26.70;46.40
17619;DHT22;8928;51.678;6.074;2023-05-18T15:01:35;27.00;46.10
17619;DHT22;8928;51.678;6.074;2023-05-18T15:04:22;27.20;44.70
17619;DHT22;8928;51.678;6.074;2023-05-18T15:07:10;27.20;46.00
17619;DHT22;8928;51.678;6.074;2023-05-18T15:09:57;26.60;44.90
17619;DHT22;8928;51.678;6.074;2023-05-18T15:12:46;26.50;47.40
17619;DHT22;8928;51.678;6.074;2023-05-18T15:15:33;25.80;46.00
17619;DHT22;8928;51.678;6.074;2023-05-18T15:18:20;25.00;48.20
17619;DHT22;8928;51.678;6.074;2023-05-18T15:21:07;24.60;47.90
17619;DHT22;8928;51.678;6.074;2023-05-18T15:23:54;24.30;48.10
17619;DHT22;8928;51.678;6.074;2023-05-18T15:26:41;24.30;48.40
17619;DHT22;8928;51.678;6.074;2023-05-18T15:29:30;25.20;48.30
17619;DHT22;8928;51.678;6.074;2023-05-18T15:32:17;25.70;47.90
17619;DHT22;8928;51.678;6.074;2023-05-18T15:35:05;26.10;50.00
17619;DHT22;8928;51.678;6.074;2023-05-18T15:37:52;27.00;47.50
17619;DHT22;8928;51.678;6.074;2023-05-18T15:40:39;27.40;49.20
17619;DHT22;8928;51.678;6.074;2023-05-18T15:43:31;27.50;46.10
17619;DHT22;8928;51.678;6.074;2023-05-18T15:46:22;27.20;45.00
17619;DHT22;8928;51.678;6.074;2023-05-18T15:49:09;26.90;46.40
17619;DHT22;8928;51.678;6.074;2023-05-18T15:51:56;26.20;46.30
17619;DHT22;8928;51.678;6.074;2023-05-18T15:54:43;26.50;46.20
17619;DHT22;8928;51.678;6.074;2023-05-18T15:57:30;26.80;45.40
17619;DHT22;8928;51.678;6.074;2023-05-18T16:00:18;26.60;45.90
17619;DHT22;8928;51.678;6.074;2023-05-18T16:03:08;26.20;46.30
17619;DHT22;8928;51.678;6.074;2023-05-18T16:05:56;26.40;45.90
17619;DHT22;8928;51.678;6.074;2023-05-18T16:08:43;26.30;44.10
17619;DHT22;8928;51.678;6.074;2023-05-18T16:11:31;26.30;44.90
17619;DHT22;8928;51.678;6.074;2023-05-18T16:14:20;25.90;44.30
17619;DHT22;8928;51.678;6.074;2023-05-18T16:17:07;25.70;45.40
17619;DHT22;8928;51.678;6.074;2023-05-18T16:19:55;24.90;46.20
17619;DHT22;8928;51.678;6.074;2023-05-18T16:22:42;24.80;45.70
17619;DHT22;8928;51.678;6.074;2023-05-18T16:25:31;24.50;45.70
17619;DHT22;8928;51.678;6.074;2023-05-18T16:28:18;24.30;45.60
17619;DHT22;8928;51.678;6.074;2023-05-18T16:31:05;24.10;45.90
17619;DHT22;8928;51.678;6.074;2023-05-18T16:33:55;23.90;47.30
17619;DHT22;8928;51.678;6.074;2023-05-18T16:36:44;23.60;46.80
17619;DHT22;8928;51.678;6.074;2023-05-18T16:39:31;23.40;47.50
17619;DHT22;8928;51.678;6.074;2023-05-18T16:42:18;23.30;46.90
17619;DHT22;8928;51.678;6.074;2023-05-18T16:45:07;23.20;47.80
17619;DHT22;8928;51.678;6.074;2023-05-18T16:47:54;23.10;47.20
17619;DHT22;8928;51.678;6.074;2023-05-18T16:50:41;22.50;47.00
17619;DHT22;8928;51.678;6.074;2023-05-18T16:53:30;22.40;48.10
17619;DHT22;8928;51.678;6.074;2023-05-18T16:56:17;22.00;48.70
17619;DHT22;8928;51.678;6.074;2023-05-18T16:59:06;21.60;49.10
17619;DHT22;8928;51.678;6.074;2023-05-18T17:01:54;21.10;49.00
17619;DHT22;8928;51.678;6.074;2023-05-18T17:04:41;20.70;51.50
17619;DHT22;8928;51.678;6.074;2023-05-18T17:07:29;20.60;52.00
17619;DHT22;8928;51.678;6.074;2023-05-18T17:10:18;20.50;51.60
17619;DHT22;8928;51.678;6.074;2023-05-18T17:13:05;20.60;51.50
17619;DHT22;8928;51.678;6.074;2023-05-18T17:15:52;20.50;50.80
17619;DHT22;8928;51.678;6.074;2023-05-18T17:18:39;20.60;51.20
17619;DHT22;8928;51.678;6.074;2023-05-18T17:21:26;20.90;50.60
17619;DHT22;8928;51.678;6.074;2023-05-18T17:24:15;21.00;51.10
17619;DHT22;8928;51.678;6.074;2023-05-18T17:27:04;21.20;51.80
17619;DHT22;8928;51.678;6.074;2023-05-18T17:29:51;21.50;51.60
17619;DHT22;8928;51.678;6.074;2023-05-18T17:32:38;21.80;51.20
17619;DHT22;8928;51.678;6.074;2023-05-18T17:35:25;22.20;51.10
17619;DHT22;8928;51.678;6.074;2023-05-18T17:38:12;22.60;50.80
17619;DHT22;8928;51.678;6.074;2023-05-18T17:41:01;22.80;49.30
17619;DHT22;8928;51.678;6.074;2023-05-18T17:43:50;23.00;48.50
17619;DHT22;8928;51.678;6.074;2023-05-18T17:46:37;22.90;49.90
17619;DHT22;8928;51.678;6.074;2023-05-18T17:49:24;22.50;49.10
17619;DHT22;8928;51.678;6.074;2023-05-18T17:52:11;22.20;49.70
17619;DHT22;8928;51.678;6.074;2023-05-18T17:54:59;21.60;50.40
17619;DHT22;8928;51.678;6.074;2023-05-18T17:57:46;21.00;50.30
17619;DHT22;8928;51.678;6.074;2023-05-18T18:00:34;20.50;50.70
17619;DHT22;8928;51.678;6.074;2023-05-18T18:03:21;20.20;52.30
17619;DHT22;8928;51.678;6.074;2023-05-18T18:06:08;19.80;52.50